sensor_id;sensor_type;location;lat;lon;timestamp;temperature;humidity
68813;DHT22;55808;48.112;11.552;2023-02-18T00:01:53;11.10;85.40
68813;DHT22;55808;48.112;11.552;2023-02-18T00:04:18;11.10;85.40
68813;DHT22;55808;48.112;11.552;2023-02-18T00:06:44;11.10;85.50
68813;DHT22;55808;48.112;11.552;2023-02-18T00:09:09;11.10;85.60
68813;DHT22;55808;48.112;11.552;2023-02-18T00:11:36;11.00;85.80
68813;DHT22;55808;48.112;11.552;2023-02-18T00:14:03;11.00;86.00
68813;DHT22;55808;48.112;11.552;2023-02-18T00:16:28;11.00;86.10
68813;DHT22;55808;48.112;11.552;2023-02-18T00:18:58;11.00;86.30
68813;DHT22;55808;48.112;11.552;2023-02-18T00:21:24;10.90;86.40
68813;DHT22;55808;48.112;11.552;2023-02-18T00:23:50;10.90;86.50
68813;DHT22;55808;48.112;11.552;2023-02-18T00:26:16;10.90;86.80
68813;DHT22;55808;48.112;11.552;2023-02-18T00:28:42;10.90;86.90
68813;DHT22;55808;48.112;11.552;2023-02-18T00:31:13;10.80;87.10
68813;DHT22;55808;48.112;11.552;2023-02-18T00:33:39;10.90;87.30
68813;DHT22;55808;48.112;11.552;2023-02-18T00:36:06;10.90;87.40
68813;DHT22;55808;48.112;11.552;2023-02-18T00:38:32;10.90;87.50
68813;DHT22;55808;48.112;11.552;2023-02-18T00:40:57;10.80;87.70
68813;DHT22;55808;48.112;11.552;2023-02-18T00:43:23;10.80;87.90
68813;DHT22;55808;48.112;11.552;2023-02-18T00:45:48;10.80;88.00
68813;DHT22;55808;48.112;11.552;2023-02-18T00:48:14;10.80;88.20
68813;DHT22;55808;48.112;11.552;2023-02-18T00:50:39;10.70;88.30
68813;DHT22;55808;48.112;11.552;2023-02-18T00:53:05;10.70;88.60
68813;DHT22;55808;48.112;11.552;2023-02-18T00:55:30;10.70;88.60
68813;DHT22;55808;48.112;11.552;2023-02-18T00:57:56;10.70;88.80
68813;DHT22;55808;48.112;11.552;2023-02-18T01:00:21;10.60;88.90
68813;DHT22;55808;48.112;11.552;2023-02-18T01:02:49;10.60;89.20
68813;DHT22;55808;48.112;11.552;2023-02-18T01:05:19;10.60;89.30
68813;DHT22;55808;48.112;11.552;2023-02-18T01:07:45;10.60;89.50
68813;DHT22;55808;48.112;11.552;2023-02-18T01:10:10;10.60;89.80
68813;DHT22;55808;48.112;11.552;2023-02-18T01:12:36;10.70;90.00
68813;DHT22;55808;48.112;11.552;2023-02-18T01:15:05;10.70;90.10
68813;DHT22;55808;48.112;11.552;2023-02-18T01:17:31;10.70;90.20
68813;DHT22;55808;48.112;11.552;2023-02-18T01:19:56;10.70;90.30
68813;DHT22;55808;48.112;11.552;2023-02-18T01:22:22;10.70;90.30
68813;DHT22;55808;48.112;11.552;2023-02-18T01:24:48;10.60;90.40
68813;DHT22;55808;48.112;11.552;2023-02-18T01:27:13;10.60;90.40
68813;DHT22;55808;48.112;11.552;2023-02-18T01:29:39;10.60;90.60
68813;DHT22;55808;48.112;11.552;2023-02-18T01:32:04;10.60;90.60
68813;DHT22;55808;48.112;11.552;2023-02-18T01:34:30;10.60;90.70
68813;DHT22;55808;48.112;11.552;2023-02-18T01:36:55;10.60;90.80
68813;DHT22;55808;48.112;11.552;2023-02-18T01:39:21;10.60;91.00
68813;DHT22;55808;48.112;11.552;2023-02-18T01:41:46;10.60;91.10
68813;DHT22;55808;48.112;11.552;2023-02-18T01:44:22;10.50;91.20
68813;DHT22;55808;48.112;11.552;2023-02-18T01:46:48;10.50;91.20
68813;DHT22;55808;48.112;11.552;2023-02-18T01:49:18;10.50;91.30
68813;DHT22;55808;48.112;11.552;2023-02-18T01:51:46;10.50;91.40
68813;DHT22;55808;48.112;11.552;2023-02-18T01:54:25;10.60;91.40
68813;DHT22;55808;48.112;11.552;2023-02-18T01:56:53;10.60;91.40
68813;DHT22;55808;48.112;11.552;2023-02-18T01:59:25;10.70;91.40
68813;DHT22;55808;48.112;11.552;2023-02-18T02:01:55;10.60;91.40
68813;DHT22;55808;48.112;11.552;2023-02-18T02:07:27;10.60;91.40
68813;DHT22;55808;48.112;11.552;2023-02-18T02:09:53;10.70;91.40
68813;DHT22;55808;48.112;11.552;2023-02-18T02:17:29;10.70;91.40
68813;DHT22;55808;48.112;11.552;2023-02-18T02:36:02;10.80;91.60
68813;DHT22;55808;48.112;11.552;2023-02-18T02:38:33;10.80;91.70
68813;DHT22;55808;48.112;11.552;2023-02-18T02:41:07;10.80;91.70
68813;DHT22;55808;48.112;11.552;2023-02-18T02:43:54;10.80;91.80
68813;DHT22;55808;48.112;11.552;2023-02-18T02:46:34;10.80;92.00
68813;DHT22;55808;48.112;11.552;2023-02-18T02:49:11;10.90;92.10
68813;DHT22;55808;48.112;11.552;2023-02-18T02:51:47;10.80;92.20
68813;DHT22;55808;48.112;11.552;2023-02-18T02:54:22;10.80;92.20
68813;DHT22;55808;48.112;11.552;2023-02-18T02:56:49;10.90;92.30
68813;DHT22;55808;48.112;11.552;2023-02-18T02:59:28;10.90;92.50
68813;DHT22;55808;48.112;11.552;2023-02-18T03:14:43;10.90;92.80
68813;DHT22;55808;48.112;11.552;2023-02-18T03:17:22;10.80;92.80
68813;DHT22;55808;48.112;11.552;2023-02-18T03:19:52;10.80;92.90
68813;DHT22;55808;48.112;11.552;2023-02-18T03:22:42;10.80;92.90
68813;DHT22;55808;48.112;11.552;2023-02-18T03:25:05;10.80;92.80
68813;DHT22;55808;48.112;11.552;2023-02-18T03:27:40;10.80;92.80
68813;DHT22;55808;48.112;11.552;2023-02-18T03:32:58;10.80;92.90
68813;DHT22;55808;48.112;11.552;2023-02-18T03:35:24;10.80;93.20
68813;DHT22;55808;48.112;11.552;2023-02-18T03:37:54;10.80;92.90
68813;DHT22;55808;48.112;11.552;2023-02-18T03:40:26;10.80;93.00
68813;DHT22;55808;48.112;11.552;2023-02-18T03:42:51;10.80;93.00
68813;DHT22;55808;48.112;11.552;2023-02-18T03:45:17;10.80;93.00
68813;DHT22;55808;48.112;11.552;2023-02-18T03:47:42;10.80;93.00
68813;DHT22;55808;48.112;11.552;2023-02-18T03:50:08;10.80;93.10
68813;DHT22;55808;48.112;11.552;2023-02-18T03:52:33;10.80;93.10
68813;DHT22;55808;48.112;11.552;2023-02-18T03:55:02;10.80;93.10
68813;DHT22;55808;48.112;11.552;2023-02-18T03:57:28;10.80;93.10
68813;DHT22;55808;48.112;11.552;2023-02-18T03:59:53;10.80;93.10
68813;DHT22;55808;48.112;11.552;2023-02-18T04:02:19;10.70;93.10
68813;DHT22;55808;48.112;11.552;2023-02-18T04:04:44;10.70;93.10
68813;DHT22;55808;48.112;11.552;2023-02-18T04:07:09;10.70;93.20
68813;DHT22;55808;48.112;11.552;2023-02-18T04:09:35;10.70;93.20
68813;DHT22;55808;48.112;11.552;2023-02-18T04:12:00;10.70;93.30
68813;DHT22;55808;48.112;11.552;2023-02-18T04:14:26;10.70;93.40
68813;DHT22;55808;48.112;11.552;2023-02-18T04:16:52;10.70;93.40
68813;DHT22;55808;48.112;11.552;2023-02-18T04:19:17;10.70;93.40
68813;DHT22;55808;48.112;11.552;2023-02-18T04:21:42;10.70;93.40
68813;DHT22;55808;48.112;11.552;2023-02-18T04:24:08;10.70;93.50
68813;DHT22;55808;48.112;11.552;2023-02-18T04:26:33;10.60;93.50
68813;DHT22;55808;48.112;11.552;2023-02-18T04:28:59;10.60;93.50
68813;DHT22;55808;48.112;11.552;2023-02-18T04:31:24;10.60;93.40
68813;DHT22;55808;48.112;11.552;2023-02-18T04:33:50;10.60;93.50
68813;DHT22;55808;48.112;11.552;2023-02-18T04:36:15;10.60;93.50
68813;DHT22;55808;48.112;11.552;2023-02-18T04:38:41;10.60;93.40
68813;DHT22;55808;48.112;11.552;2023-02-18T04:41:07;10.60;93.30
68813;DHT22;55808;48.112;11.552;2023-02-18T04:43:33;10.60;93.30
68813;DHT22;55808;48.112;11.552;2023-02-18T04:45:58;10.50;93.20
68813;DHT22;55808;48.112;11.552;2023-02-18T04:48:24;10.60;93.20
68813;DHT22;55808;48.112;11.552;2023-02-18T04:50:49;10.50;93.20
68813;DHT22;55808;48.112;11.552;2023-02-18T04:53:15;10.50;93.20
68813;DHT22;55808;48.112;11.552;2023-02-18T04:55:40;10.50;93.20
68813;DHT22;55808;48.112;11.552;2023-02-18T04:58:06;10.50;93.10
68813;DHT22;55808;48.112;11.552;2023-02-18T05:00:31;10.50;93.10
68813;DHT22;55808;48.112;11.552;2023-02-18T05:02:57;10.50;93.20
68813;DHT22;55808;48.112;11.552;2023-02-18T05:05:22;10.50;93.10
68813;DHT22;55808;48.112;11.552;2023-02-18T05:07:48;10.50;93.10
68813;DHT22;55808;48.112;11.552;2023-02-18T05:10:15;10.50;93.00
68813;DHT22;55808;48.112;11.552;2023-02-18T05:12:41;10.50;93.10
68813;DHT22;55808;48.112;11.552;2023-02-18T05:15:07;10.50;92.90
68813;DHT22;55808;48.112;11.552;2023-02-18T05:17:32;10.50;92.70
68813;DHT22;55808;48.112;11.552;2023-02-18T05:19:58;10.50;92.60
68813;DHT22;55808;48.112;11.552;2023-02-18T05:22:24;10.50;92.60
68813;DHT22;55808;48.112;11.552;2023-02-18T05:24:49;10.60;92.60
68813;DHT22;55808;48.112;11.552;2023-02-18T05:27:15;10.60;92.50
68813;DHT22;55808;48.112;11.552;2023-02-18T05:29:40;10.60;92.50
68813;DHT22;55808;48.112;11.552;2023-02-18T05:32:06;10.50;92.50
68813;DHT22;55808;48.112;11.552;2023-02-18T05:34:31;10.50;92.40
68813;DHT22;55808;48.112;11.552;2023-02-18T05:36:57;10.50;92.30
68813;DHT22;55808;48.112;11.552;2023-02-18T05:39:22;10.50;92.20
68813;DHT22;55808;48.112;11.552;2023-02-18T05:41:48;10.50;92.20
68813;DHT22;55808;48.112;11.552;2023-02-18T05:44:13;10.60;92.10
68813;DHT22;55808;48.112;11.552;2023-02-18T05:46:54;10.60;92.00
68813;DHT22;55808;48.112;11.552;2023-02-18T05:49:20;10.60;91.90
68813;DHT22;55808;48.112;11.552;2023-02-18T05:51:45;10.60;91.90
68813;DHT22;55808;48.112;11.552;2023-02-18T05:54:11;10.60;91.70
68813;DHT22;55808;48.112;11.552;2023-02-18T05:56:36;10.60;91.60
68813;DHT22;55808;48.112;11.552;2023-02-18T05:59:05;10.60;91.60
68813;DHT22;55808;48.112;11.552;2023-02-18T06:01:30;10.60;91.60
68813;DHT22;55808;48.112;11.552;2023-02-18T06:03:56;10.60;91.50
68813;DHT22;55808;48.112;11.552;2023-02-18T06:06:21;10.60;91.50
68813;DHT22;55808;48.112;11.552;2023-02-18T06:08:47;10.60;91.50
68813;DHT22;55808;48.112;11.552;2023-02-18T06:11:13;10.60;91.50
68813;DHT22;55808;48.112;11.552;2023-02-18T06:13:38;10.60;91.40
68813;DHT22;55808;48.112;11.552;2023-02-18T06:16:04;10.60;91.40
68813;DHT22;55808;48.112;11.552;2023-02-18T06:18:29;10.60;91.30
68813;DHT22;55808;48.112;11.552;2023-02-18T06:20:55;10.60;91.30
68813;DHT22;55808;48.112;11.552;2023-02-18T06:23:20;10.70;91.20
68813;DHT22;55808;48.112;11.552;2023-02-18T06:25:49;10.70;91.20
68813;DHT22;55808;48.112;11.552;2023-02-18T06:28:15;10.70;91.10
68813;DHT22;55808;48.112;11.552;2023-02-18T06:30:40;10.70;90.90
68813;DHT22;55808;48.112;11.552;2023-02-18T06:33:06;10.70;90.80
68813;DHT22;55808;48.112;11.552;2023-02-18T06:35:31;10.70;90.80
68813;DHT22;55808;48.112;11.552;2023-02-18T06:37:57;10.70;90.70
68813;DHT22;55808;48.112;11.552;2023-02-18T06:40:22;10.70;90.80
68813;DHT22;55808;48.112;11.552;2023-02-18T06:42:48;10.70;90.60
68813;DHT22;55808;48.112;11.552;2023-02-18T06:45:13;10.80;90.50
68813;DHT22;55808;48.112;11.552;2023-02-18T06:47:41;10.80;90.40
68813;DHT22;55808;48.112;11.552;2023-02-18T06:50:07;10.80;90.40
68813;DHT22;55808;48.112;11.552;2023-02-18T06:52:32;10.80;90.40
68813;DHT22;55808;48.112;11.552;2023-02-18T06:54:59;10.80;90.40
68813;DHT22;55808;48.112;11.552;2023-02-18T06:57:24;10.80;90.40
68813;DHT22;55808;48.112;11.552;2023-02-18T06:59:50;10.80;90.40
68813;DHT22;55808;48.112;11.552;2023-02-18T07:02:15;10.80;90.30
68813;DHT22;55808;48.112;11.552;2023-02-18T07:04:41;10.80;90.30
68813;DHT22;55808;48.112;11.552;2023-02-18T07:07:06;10.80;90.10
68813;DHT22;55808;48.112;11.552;2023-02-18T07:09:32;10.80;90.10
68813;DHT22;55808;48.112;11.552;2023-02-18T07:11:57;10.90;90.00
68813;DHT22;55808;48.112;11.552;2023-02-18T07:14:23;10.90;90.00
68813;DHT22;55808;48.112;11.552;2023-02-18T07:16:49;10.90;89.70
68813;DHT22;55808;48.112;11.552;2023-02-18T07:19:15;10.90;89.50
68813;DHT22;55808;48.112;11.552;2023-02-18T07:21:40;10.90;89.40
68813;DHT22;55808;48.112;11.552;2023-02-18T07:24:06;11.00;89.30
68813;DHT22;55808;48.112;11.552;2023-02-18T07:26:31;10.90;89.10
68813;DHT22;55808;48.112;11.552;2023-02-18T07:28:57;10.90;88.90
68813;DHT22;55808;48.112;11.552;2023-02-18T07:31:25;11.30;88.50
68813;DHT22;55808;48.112;11.552;2023-02-18T07:33:50;11.40;87.90
68813;DHT22;55808;48.112;11.552;2023-02-18T07:36:16;11.20;88.20
68813;DHT22;55808;48.112;11.552;2023-02-18T07:38:41;10.90;88.80
68813;DHT22;55808;48.112;11.552;2023-02-18T07:41:11;10.90;89.20
68813;DHT22;55808;48.112;11.552;2023-02-18T07:43:38;10.90;89.30
68813;DHT22;55808;48.112;11.552;2023-02-18T07:46:05;10.80;89.50
68813;DHT22;55808;48.112;11.552;2023-02-18T07:48:30;10.80;89.70
68813;DHT22;55808;48.112;11.552;2023-02-18T07:50:56;10.80;90.00
68813;DHT22;55808;48.112;11.552;2023-02-18T07:53:21;10.80;90.00
68813;DHT22;55808;48.112;11.552;2023-02-18T07:55:47;10.80;90.00
68813;DHT22;55808;48.112;11.552;2023-02-18T07:58:19;10.80;90.10
68813;DHT22;55808;48.112;11.552;2023-02-18T08:00:45;10.80;90.20
68813;DHT22;55808;48.112;11.552;2023-02-18T08:03:17;10.80;90.20
68813;DHT22;55808;48.112;11.552;2023-02-18T08:05:43;10.80;90.10
68813;DHT22;55808;48.112;11.552;2023-02-18T08:08:11;10.80;90.20
68813;DHT22;55808;48.112;11.552;2023-02-18T08:10:37;10.80;90.20
68813;DHT22;55808;48.112;11.552;2023-02-18T08:13:02;10.80;90.20
68813;DHT22;55808;48.112;11.552;2023-02-18T08:15:28;10.90;90.10
68813;DHT22;55808;48.112;11.552;2023-02-18T08:17:53;10.90;90.00
68813;DHT22;55808;48.112;11.552;2023-02-18T08:20:19;10.90;90.00
68813;DHT22;55808;48.112;11.552;2023-02-18T08:22:44;10.90;89.40
68813;DHT22;55808;48.112;11.552;2023-02-18T08:25:10;11.00;89.60
68813;DHT22;55808;48.112;11.552;2023-02-18T08:27:36;11.00;89.40
68813;DHT22;55808;48.112;11.552;2023-02-18T08:30:01;11.00;89.30
68813;DHT22;55808;48.112;11.552;2023-02-18T08:32:29;11.10;89.20
68813;DHT22;55808;48.112;11.552;2023-02-18T08:34:54;11.00;89.10
68813;DHT22;55808;48.112;11.552;2023-02-18T08:37:20;11.00;89.20
68813;DHT22;55808;48.112;11.552;2023-02-18T08:39:46;11.10;89.30
68813;DHT22;55808;48.112;11.552;2023-02-18T08:42:12;11.10;89.30
68813;DHT22;55808;48.112;11.552;2023-02-18T08:44:38;11.10;89.30
68813;DHT22;55808;48.112;11.552;2023-02-18T08:47:03;11.20;89.30
68813;DHT22;55808;48.112;11.552;2023-02-18T08:49:29;11.20;89.20
68813;DHT22;55808;48.112;11.552;2023-02-18T08:51:55;11.20;88.80
68813;DHT22;55808;48.112;11.552;2023-02-18T08:54:20;11.20;88.70
68813;DHT22;55808;48.112;11.552;2023-02-18T08:56:46;11.30;88.40
68813;DHT22;55808;48.112;11.552;2023-02-18T08:59:11;11.40;88.10
68813;DHT22;55808;48.112;11.552;2023-02-18T09:01:37;11.40;87.60
68813;DHT22;55808;48.112;11.552;2023-02-18T09:04:02;11.40;87.10
68813;DHT22;55808;48.112;11.552;2023-02-18T09:06:28;11.40;87.20
68813;DHT22;55808;48.112;11.552;2023-02-18T09:08:53;11.30;87.10
68813;DHT22;55808;48.112;11.552;2023-02-18T09:11:19;11.30;87.10
68813;DHT22;55808;48.112;11.552;2023-02-18T09:13:45;11.40;87.20
68813;DHT22;55808;48.112;11.552;2023-02-18T09:16:12;11.40;86.40
68813;DHT22;55808;48.112;11.552;2023-02-18T09:18:38;11.50;87.50
68813;DHT22;55808;48.112;11.552;2023-02-18T09:21:05;11.60;86.70
68813;DHT22;55808;48.112;11.552;2023-02-18T09:23:31;11.50;86.10
68813;DHT22;55808;48.112;11.552;2023-02-18T09:25:57;11.40;86.50
68813;DHT22;55808;48.112;11.552;2023-02-18T09:28:22;11.40;86.50
68813;DHT22;55808;48.112;11.552;2023-02-18T09:30:48;11.40;86.50
68813;DHT22;55808;48.112;11.552;2023-02-18T09:33:14;11.50;86.40
68813;DHT22;55808;48.112;11.552;2023-02-18T09:35:40;11.50;86.20
68813;DHT22;55808;48.112;11.552;2023-02-18T09:38:06;11.50;86.70
68813;DHT22;55808;48.112;11.552;2023-02-18T09:40:32;11.60;85.80
68813;DHT22;55808;48.112;11.552;2023-02-18T09:42:59;11.60;85.70
68813;DHT22;55808;48.112;11.552;2023-02-18T09:45:25;11.60;85.60
68813;DHT22;55808;48.112;11.552;2023-02-18T09:47:50;11.60;85.50
68813;DHT22;55808;48.112;11.552;2023-02-18T09:50:20;11.70;85.70
68813;DHT22;55808;48.112;11.552;2023-02-18T09:52:46;11.60;85.30
68813;DHT22;55808;48.112;11.552;2023-02-18T09:57:56;11.70;85.30
68813;DHT22;55808;48.112;11.552;2023-02-18T10:00:36;11.80;84.90
68813;DHT22;55808;48.112;11.552;2023-02-18T10:03:06;12.00;84.30
68813;DHT22;55808;48.112;11.552;2023-02-18T10:05:33;12.00;84.30
68813;DHT22;55808;48.112;11.552;2023-02-18T10:08:04;12.10;84.10
68813;DHT22;55808;48.112;11.552;2023-02-18T10:10:46;12.10;83.80
68813;DHT22;55808;48.112;11.552;2023-02-18T10:13:14;12.20;83.60
68813;DHT22;55808;48.112;11.552;2023-02-18T10:15:40;12.20;83.10
68813;DHT22;55808;48.112;11.552;2023-02-18T10:18:05;12.20;83.30
68813;DHT22;55808;48.112;11.552;2023-02-18T10:20:40;12.10;83.00
68813;DHT22;55808;48.112;11.552;2023-02-18T10:23:07;12.10;82.90
68813;DHT22;55808;48.112;11.552;2023-02-18T10:25:42;12.20;83.00
68813;DHT22;55808;48.112;11.552;2023-02-18T10:28:09;12.30;82.70
68813;DHT22;55808;48.112;11.552;2023-02-18T10:30:37;12.40;82.50
68813;DHT22;55808;48.112;11.552;2023-02-18T10:38:45;12.50;82.40
68813;DHT22;55808;48.112;11.552;2023-02-18T10:41:21;12.70;82.10
68813;DHT22;55808;48.112;11.552;2023-02-18T10:48:53;12.90;81.10
68813;DHT22;55808;48.112;11.552;2023-02-18T10:51:23;12.80;80.80
68813;DHT22;55808;48.112;11.552;2023-02-18T10:53:50;12.80;80.70
68813;DHT22;55808;48.112;11.552;2023-02-18T10:59:17;13.00;80.00
68813;DHT22;55808;48.112;11.552;2023-02-18T11:01:44;13.10;79.60
68813;DHT22;55808;48.112;11.552;2023-02-18T11:04:17;13.10;79.40
68813;DHT22;55808;48.112;11.552;2023-02-18T11:06:45;13.10;79.40
68813;DHT22;55808;48.112;11.552;2023-02-18T11:12:04;13.20;79.00
68813;DHT22;55808;48.112;11.552;2023-02-18T11:14:37;13.30;78.60
68813;DHT22;55808;48.112;11.552;2023-02-18T11:17:08;13.20;78.00
68813;DHT22;55808;48.112;11.552;2023-02-18T11:19:35;13.30;77.80
68813;DHT22;55808;48.112;11.552;2023-02-18T11:24:45;13.80;77.20
68813;DHT22;55808;48.112;11.552;2023-02-18T11:27:20;13.70;76.20
68813;DHT22;55808;48.112;11.552;2023-02-18T11:29:47;13.90;76.40
68813;DHT22;55808;48.112;11.552;2023-02-18T11:32:14;13.60;81.80
68813;DHT22;55808;48.112;11.552;2023-02-18T11:34:40;13.50;80.60
68813;DHT22;55808;48.112;11.552;2023-02-18T11:37:09;13.60;79.40
68813;DHT22;55808;48.112;11.552;2023-02-18T11:39:35;13.60;79.20
68813;DHT22;55808;48.112;11.552;2023-02-18T11:42:02;13.80;77.80
68813;DHT22;55808;48.112;11.552;2023-02-18T11:44:33;13.90;78.10
68813;DHT22;55808;48.112;11.552;2023-02-18T11:47:01;13.90;76.80
68813;DHT22;55808;48.112;11.552;2023-02-18T11:49:27;13.80;77.20
68813;DHT22;55808;48.112;11.552;2023-02-18T11:51:54;13.90;76.30
68813;DHT22;55808;48.112;11.552;2023-02-18T11:54:26;14.30;76.60
68813;DHT22;55808;48.112;11.552;2023-02-18T11:56:55;14.50;75.10
68813;DHT22;55808;48.112;11.552;2023-02-18T11:59:22;14.60;74.90
68813;DHT22;55808;48.112;11.552;2023-02-18T12:04:36;14.40;73.60
68813;DHT22;55808;48.112;11.552;2023-02-18T12:07:19;14.40;74.80
68813;DHT22;55808;48.112;11.552;2023-02-18T12:09:57;14.30;74.30
68813;DHT22;55808;48.112;11.552;2023-02-18T12:14:48;14.20;73.90
68813;DHT22;55808;48.112;11.552;2023-02-18T12:20:23;14.20;73.60
68813;DHT22;55808;48.112;11.552;2023-02-18T12:25:54;14.90;73.60
68813;DHT22;55808;48.112;11.552;2023-02-18T12:28:30;15.40;72.10
68813;DHT22;55808;48.112;11.552;2023-02-18T12:36:34;15.00;71.90
68813;DHT22;55808;48.112;11.552;2023-02-18T12:49:32;14.30;72.70
68813;DHT22;55808;48.112;11.552;2023-02-18T12:52:11;14.90;71.90
68813;DHT22;55808;48.112;11.552;2023-02-18T12:57:38;14.90;71.00
68813;DHT22;55808;48.112;11.552;2023-02-18T13:00:22;15.10;71.20
68813;DHT22;55808;48.112;11.552;2023-02-18T13:05:29;15.90;68.40
68813;DHT22;55808;48.112;11.552;2023-02-18T13:08:06;15.30;69.50
68813;DHT22;55808;48.112;11.552;2023-02-18T13:10:43;15.40;69.90
68813;DHT22;55808;48.112;11.552;2023-02-18T13:13:57;16.60;67.40
68813;DHT22;55808;48.112;11.552;2023-02-18T13:16:09;17.40;65.40
68813;DHT22;55808;48.112;11.552;2023-02-18T13:18:37;16.40;65.10
68813;DHT22;55808;48.112;11.552;2023-02-18T13:21:05;16.60;66.30
68813;DHT22;55808;48.112;11.552;2023-02-18T13:23:33;17.20;65.50
68813;DHT22;55808;48.112;11.552;2023-02-18T13:26:00;17.00;65.20
68813;DHT22;55808;48.112;11.552;2023-02-18T13:33:52;15.50;68.90
68813;DHT22;55808;48.112;11.552;2023-02-18T13:41:18;14.80;71.30
68813;DHT22;55808;48.112;11.552;2023-02-18T13:43:44;14.90;71.10
68813;DHT22;55808;48.112;11.552;2023-02-18T13:51:12;14.20;73.10
68813;DHT22;55808;48.112;11.552;2023-02-18T13:53:42;13.90;75.00
68813;DHT22;55808;48.112;11.552;2023-02-18T13:56:21;13.90;74.40
68813;DHT22;55808;48.112;11.552;2023-02-18T13:58:52;13.60;74.50
68813;DHT22;55808;48.112;11.552;2023-02-18T14:06:17;13.50;75.10
68813;DHT22;55808;48.112;11.552;2023-02-18T14:08:43;13.60;74.80
68813;DHT22;55808;48.112;11.552;2023-02-18T14:13:41;13.50;74.60
68813;DHT22;55808;48.112;11.552;2023-02-18T14:16:07;13.60;74.30
68813;DHT22;55808;48.112;11.552;2023-02-18T14:18:55;13.70;73.80
68813;DHT22;55808;48.112;11.552;2023-02-18T14:21:20;13.60;73.90
68813;DHT22;55808;48.112;11.552;2023-02-18T14:23:59;13.60;74.10
68813;DHT22;55808;48.112;11.552;2023-02-18T14:26:30;13.60;73.70
68813;DHT22;55808;48.112;11.552;2023-02-18T14:29:00;13.60;73.90
68813;DHT22;55808;48.112;11.552;2023-02-18T14:44:40;13.10;74.90
68813;DHT22;55808;48.112;11.552;2023-02-18T14:49:55;13.20;74.90
68813;DHT22;55808;48.112;11.552;2023-02-18T14:52:33;13.10;75.00
68813;DHT22;55808;48.112;11.552;2023-02-18T14:55:02;13.10;74.90
68813;DHT22;55808;48.112;11.552;2023-02-18T14:57:31;13.10;74.80
68813;DHT22;55808;48.112;11.552;2023-02-18T14:59:58;13.10;74.00
68813;DHT22;55808;48.112;11.552;2023-02-18T15:02:25;13.10;73.40
68813;DHT22;55808;48.112;11.552;2023-02-18T15:04:52;13.20;72.90
68813;DHT22;55808;48.112;11.552;2023-02-18T15:07:18;13.10;73.40
68813;DHT22;55808;48.112;11.552;2023-02-18T15:09:47;13.00;73.90
68813;DHT22;55808;48.112;11.552;2023-02-18T15:12:15;13.00;74.30
68813;DHT22;55808;48.112;11.552;2023-02-18T15:14:41;13.00;74.50
68813;DHT22;55808;48.112;11.552;2023-02-18T15:17:15;13.00;74.30
68813;DHT22;55808;48.112;11.552;2023-02-18T15:19:51;13.00;74.20
68813;DHT22;55808;48.112;11.552;2023-02-18T15:22:28;13.00;73.80
68813;DHT22;55808;48.112;11.552;2023-02-18T15:24:55;13.00;73.90
68813;DHT22;55808;48.112;11.552;2023-02-18T15:27:24;13.00;73.90
68813;DHT22;55808;48.112;11.552;2023-02-18T15:29:51;13.00;73.20
68813;DHT22;55808;48.112;11.552;2023-02-18T15:32:18;13.00;73.10
68813;DHT22;55808;48.112;11.552;2023-02-18T15:34:44;13.00;72.30
68813;DHT22;55808;48.112;11.552;2023-02-18T15:37:11;13.00;72.20
68813;DHT22;55808;48.112;11.552;2023-02-18T15:39:37;13.00;72.10
68813;DHT22;55808;48.112;11.552;2023-02-18T15:45:03;12.90;71.80
68813;DHT22;55808;48.112;11.552;2023-02-18T15:47:29;12.90;72.10
68813;DHT22;55808;48.112;11.552;2023-02-18T15:49:58;12.90;72.10
68813;DHT22;55808;48.112;11.552;2023-02-18T15:52:32;12.90;73.00
68813;DHT22;55808;48.112;11.552;2023-02-18T15:55:03;12.80;72.20
68813;DHT22;55808;48.112;11.552;2023-02-18T15:57:29;12.80;72.70
68813;DHT22;55808;48.112;11.552;2023-02-18T16:00:19;12.80;72.80
68813;DHT22;55808;48.112;11.552;2023-02-18T16:03:01;12.70;73.00
68813;DHT22;55808;48.112;11.552;2023-02-18T16:05:27;12.70;73.20
68813;DHT22;55808;48.112;11.552;2023-02-18T16:07:59;12.70;73.40
68813;DHT22;55808;48.112;11.552;2023-02-18T16:12:57;12.60;73.50
68813;DHT22;55808;48.112;11.552;2023-02-18T16:15:29;12.60;73.50
68813;DHT22;55808;48.112;11.552;2023-02-18T16:17:54;12.60;73.10
68813;DHT22;55808;48.112;11.552;2023-02-18T16:20:30;12.50;73.40
68813;DHT22;55808;48.112;11.552;2023-02-18T16:22:58;12.50;73.50
68813;DHT22;55808;48.112;11.552;2023-02-18T16:25:25;12.40;73.50
68813;DHT22;55808;48.112;11.552;2023-02-18T16:30:18;12.40;73.80
68813;DHT22;55808;48.112;11.552;2023-02-18T16:32:44;12.40;74.00
68813;DHT22;55808;48.112;11.552;2023-02-18T16:35:10;12.30;73.80
68813;DHT22;55808;48.112;11.552;2023-02-18T16:37:36;12.40;74.10
68813;DHT22;55808;48.112;11.552;2023-02-18T16:42:50;12.30;74.20
68813;DHT22;55808;48.112;11.552;2023-02-18T16:45:15;12.30;74.50
68813;DHT22;55808;48.112;11.552;2023-02-18T16:47:42;12.20;74.50
68813;DHT22;55808;48.112;11.552;2023-02-18T16:50:18;12.30;75.30
68813;DHT22;55808;48.112;11.552;2023-02-18T16:52:45;12.40;74.10
68813;DHT22;55808;48.112;11.552;2023-02-18T16:55:21;12.30;74.50
68813;DHT22;55808;48.112;11.552;2023-02-18T16:57:48;12.20;74.70
68813;DHT22;55808;48.112;11.552;2023-02-18T17:00:14;12.20;74.80
68813;DHT22;55808;48.112;11.552;2023-02-18T17:02:40;12.20;74.80
68813;DHT22;55808;48.112;11.552;2023-02-18T17:05:07;12.10;74.80
68813;DHT22;55808;48.112;11.552;2023-02-18T17:07:32;12.10;74.40
68813;DHT22;55808;48.112;11.552;2023-02-18T17:09:58;12.10;74.30
68813;DHT22;55808;48.112;11.552;2023-02-18T17:12:24;12.10;74.20
68813;DHT22;55808;48.112;11.552;2023-02-18T17:14:50;12.10;74.10
68813;DHT22;55808;48.112;11.552;2023-02-18T17:17:16;12.10;73.90
68813;DHT22;55808;48.112;11.552;2023-02-18T17:19:46;12.10;74.00
68813;DHT22;55808;48.112;11.552;2023-02-18T17:22:12;12.10;73.80
68813;DHT22;55808;48.112;11.552;2023-02-18T17:24:37;12.10;73.70
68813;DHT22;55808;48.112;11.552;2023-02-18T17:27:03;12.10;73.60
68813;DHT22;55808;48.112;11.552;2023-02-18T17:29:28;12.10;73.60
68813;DHT22;55808;48.112;11.552;2023-02-18T17:31:54;12.10;73.80
68813;DHT22;55808;48.112;11.552;2023-02-18T17:34:25;12.00;73.70
68813;DHT22;55808;48.112;11.552;2023-02-18T17:36:53;12.00;73.90
68813;DHT22;55808;48.112;11.552;2023-02-18T17:39:18;12.00;73.80
68813;DHT22;55808;48.112;11.552;2023-02-18T17:41:44;12.00;73.80
68813;DHT22;55808;48.112;11.552;2023-02-18T17:44:13;12.00;73.90